createdAt,value
2023-02-14T00:02:18.496Z,4.98
2023-02-14T00:04:50.980Z,4.98
2023-02-14T00:07:24.547Z,4.97
2023-02-14T00:09:56.935Z,4.96
2023-02-14T00:12:30.114Z,4.94
2023-02-14T00:15:21.147Z,4.94
2023-02-14T00:18:00.312Z,4.98
2023-02-14T00:20:33.337Z,5.00
2023-02-14T00:23:05.614Z,4.99
2023-02-14T00:25:38.864Z,4.99
2023-02-14T00:28:11.862Z,4.99
2023-02-14T00:30:44.804Z,4.98
2023-02-14T00:33:17.250Z,4.97
2023-02-14T00:35:50.885Z,4.97
2023-02-14T00:38:23.887Z,4.98
2023-02-14T00:40:56.230Z,5.00
2023-02-14T00:43:28.988Z,5.01
2023-02-14T00:46:02.182Z,5.05
2023-02-14T00:48:34.622Z,5.06
2023-02-14T00:51:07.122Z,5.05
2023-02-14T00:53:39.779Z,5.05
2023-02-14T00:56:12.916Z,5.06
2023-02-14T00:58:45.561Z,5.06
2023-02-14T01:01:18.279Z,5.07
2023-02-14T01:03:51.003Z,5.07
2023-02-14T01:06:23.377Z,5.06
2023-02-14T01:08:55.690Z,5.09
2023-02-14T01:11:30.223Z,5.10
2023-02-14T01:14:02.606Z,5.10
2023-02-14T01:16:35.360Z,5.09
2023-02-14T01:19:09.494Z,5.09
2023-02-14T01:21:42.402Z,5.09
2023-02-14T01:24:15.441Z,5.10
2023-02-14T01:26:48.375Z,5.07
2023-02-14T01:29:20.800Z,5.07
2023-02-14T01:31:53.398Z,5.08
2023-02-14T01:34:26.462Z,5.12
2023-02-14T01:36:59.121Z,5.14
2023-02-14T01:39:31.527Z,5.16
2023-02-14T01:42:04.366Z,5.16
2023-02-14T01:44:43.221Z,5.18
2023-02-14T01:47:15.678Z,5.17
2023-02-14T01:49:54.057Z,5.16
2023-02-14T01:52:37.120Z,5.18
2023-02-14T01:55:28.277Z,5.20
2023-02-14T01:58:17.296Z,5.19
2023-02-14T02:00:59.571Z,5.19
2023-02-14T02:03:37.720Z,5.19
2023-02-14T02:06:18.583Z,5.19
2023-02-14T02:08:58.749Z,5.19
2023-02-14T02:11:32.526Z,5.18
2023-02-14T02:14:06.441Z,5.16
2023-02-14T02:17:06.069Z,5.17
2023-02-14T02:20:33.787Z,5.20
2023-02-14T02:23:36.685Z,5.21
2023-02-14T02:26:34.981Z,5.21
2023-02-14T02:29:31.700Z,5.20
2023-02-14T02:32:49.959Z,5.16
2023-02-14T02:35:29.443Z,5.11
2023-02-14T02:38:23.275Z,5.09
2023-02-14T02:41:05.933Z,5.08
2023-02-14T02:43:59.883Z,5.09
2023-02-14T02:46:50.553Z,5.06
2023-02-14T02:50:13.416Z,5.04
2023-02-14T02:53:06.644Z,5.01
2023-02-14T02:56:08.124Z,5.00
2023-02-14T02:58:50.534Z,5.01
2023-02-14T03:01:30.387Z,5.01
2023-02-14T03:04:25.931Z,5.01
2023-02-14T03:06:59.686Z,5.02
2023-02-14T03:09:40.010Z,5.04
2023-02-14T03:12:41.176Z,5.04
2023-02-14T03:15:34.907Z,5.02
2023-02-14T03:18:32.866Z,5.03
2023-02-14T03:21:29.578Z,5.04
2023-02-14T03:24:33.375Z,5.03
2023-02-14T03:27:39.309Z,5.01
2023-02-14T03:30:36.143Z,4.97
2023-02-14T03:33:21.931Z,4.86
2023-02-14T03:36:18.032Z,4.76
2023-02-14T03:38:58.157Z,4.72
2023-02-14T03:41:35.098Z,4.67
2023-02-14T03:44:11.430Z,4.63
2023-02-14T03:47:05.934Z,4.59
2023-02-14T03:49:42.311Z,4.53
2023-02-14T03:52:14.752Z,4.48
2023-02-14T03:54:49.051Z,4.39
2023-02-14T03:57:37.349Z,4.34
2023-02-14T04:00:10.925Z,4.29
2023-02-14T04:02:52.848Z,4.28
2023-02-14T04:05:27.558Z,4.24
2023-02-14T04:08:00.503Z,4.20
2023-02-14T04:10:33.104Z,4.19
2023-02-14T04:13:05.903Z,4.21
2023-02-14T04:15:38.714Z,4.21
2023-02-14T04:18:29.878Z,4.21
2023-02-14T04:21:02.558Z,4.21
2023-02-14T04:23:36.624Z,4.21
2023-02-14T04:26:09.116Z,4.22
2023-02-14T04:28:41.489Z,4.21
2023-02-14T04:31:14.002Z,4.22
2023-02-14T04:33:48.293Z,4.22
2023-02-14T04:36:20.703Z,4.21
2023-02-14T04:38:53.775Z,4.19
2023-02-14T04:41:26.306Z,4.18
2023-02-14T04:43:58.938Z,4.19
2023-02-14T04:46:31.371Z,4.23
2023-02-14T04:49:03.945Z,4.27
2023-02-14T04:51:36.862Z,4.25
2023-02-14T04:54:09.933Z,4.24
2023-02-14T04:56:42.916Z,4.26
2023-02-14T04:59:16.426Z,4.27
2023-02-14T05:01:48.879Z,4.24
2023-02-14T05:04:21.359Z,4.24
2023-02-14T05:06:53.878Z,4.22
2023-02-14T05:09:26.904Z,4.23
2023-02-14T05:11:59.689Z,4.28
2023-02-14T05:14:32.239Z,4.28
2023-02-14T05:17:05.787Z,4.27
2023-02-14T05:19:38.771Z,4.27
2023-02-14T05:22:11.054Z,4.27
2023-02-14T05:24:43.394Z,4.25
2023-02-14T05:27:16.072Z,4.25
2023-02-14T05:29:48.546Z,4.23
2023-02-14T05:32:21.532Z,4.19
2023-02-14T05:34:54.528Z,4.20
2023-02-14T05:37:26.941Z,4.22
2023-02-14T05:39:59.688Z,4.20
2023-02-14T05:42:33.049Z,4.15
2023-02-14T05:45:07.062Z,4.15
2023-02-14T05:47:40.420Z,4.16
2023-02-14T05:50:13.210Z,4.16
2023-02-14T05:52:46.430Z,4.14
2023-02-14T05:55:19.014Z,4.14
2023-02-14T05:57:51.376Z,4.16
2023-02-14T06:00:24.990Z,4.21
2023-02-14T06:02:57.313Z,4.24
2023-02-14T06:05:30.022Z,4.26
2023-02-14T06:08:03.498Z,4.30
2023-02-14T06:10:42.148Z,4.36
2023-02-14T06:13:15.282Z,4.40
2023-02-14T06:15:48.270Z,4.43
2023-02-14T06:18:20.625Z,4.43
2023-02-14T06:20:55.573Z,4.45
2023-02-14T06:23:28.525Z,4.48
2023-02-14T06:26:01.240Z,4.56
2023-02-14T06:28:33.789Z,4.67
2023-02-14T06:31:06.893Z,4.92
2023-02-14T06:33:39.367Z,5.17
2023-02-14T06:36:11.975Z,5.24
2023-02-14T06:38:45.505Z,5.19
2023-02-14T06:41:18.098Z,5.07
2023-02-14T06:43:51.499Z,5.00
2023-02-14T06:46:23.982Z,5.04
2023-02-14T06:48:56.441Z,5.13
2023-02-14T06:51:29.545Z,5.19
2023-02-14T06:54:02.460Z,5.19
2023-02-14T06:56:35.089Z,5.14
2023-02-14T06:59:07.707Z,5.12
2023-02-14T07:01:40.201Z,5.06
2023-02-14T07:04:12.738Z,5.04
2023-02-14T07:06:46.841Z,5.04
2023-02-14T07:09:19.164Z,5.05
2023-02-14T07:11:51.564Z,5.17
2023-02-14T07:14:24.192Z,5.51
2023-02-14T07:16:56.650Z,5.87
2023-02-14T07:19:29.085Z,6.35
2023-02-14T07:22:01.648Z,6.88
2023-02-14T07:24:34.858Z,7.17
2023-02-14T07:27:07.814Z,7.27
2023-02-14T07:29:40.508Z,7.60
2023-02-14T07:32:13.710Z,8.16
2023-02-14T07:34:46.500Z,8.43
2023-02-14T07:37:19.304Z,8.43
2023-02-14T07:39:52.037Z,8.27
2023-02-14T07:42:24.698Z,8.06
2023-02-14T07:44:58.235Z,7.84
2023-02-14T07:47:30.601Z,7.68
2023-02-14T07:50:03.411Z,7.64
2023-02-14T07:52:36.520Z,7.52
2023-02-14T07:55:09.392Z,7.33
2023-02-14T07:57:42.057Z,7.21
2023-02-14T08:00:15.117Z,7.13
2023-02-14T08:02:49.530Z,7.03
2023-02-14T08:05:22.019Z,6.99
2023-02-14T08:07:54.851Z,6.92
2023-02-14T08:10:27.358Z,6.85
2023-02-14T08:13:00.440Z,6.78
2023-02-14T08:15:53.165Z,6.75
2023-02-14T08:18:27.774Z,6.75
2023-02-14T08:21:00.590Z,6.75
2023-02-14T08:23:33.830Z,6.75
2023-02-14T08:26:06.272Z,6.72
2023-02-14T08:28:40.048Z,6.67
2023-02-14T08:31:12.727Z,6.66
2023-02-14T08:33:45.620Z,6.65
2023-02-14T08:36:17.984Z,6.62
2023-02-14T08:38:50.436Z,6.53
2023-02-14T08:41:22.929Z,6.48
2023-02-14T08:43:55.290Z,6.49
2023-02-14T08:46:28.057Z,6.50
2023-02-14T08:49:00.523Z,6.47
2023-02-14T08:51:33.159Z,6.44
2023-02-14T08:54:05.648Z,6.44
2023-02-14T08:56:38.496Z,6.44
2023-02-14T08:59:11.146Z,6.40
2023-02-14T09:01:43.555Z,6.41
2023-02-14T09:04:16.504Z,6.45
2023-02-14T09:06:49.230Z,6.59
2023-02-14T09:09:21.786Z,6.69
2023-02-14T09:11:54.478Z,6.74
2023-02-14T09:14:27.241Z,6.80
2023-02-14T09:17:01.575Z,6.88
2023-02-14T09:19:35.829Z,6.92
2023-02-14T09:22:09.216Z,6.90
2023-02-14T09:24:42.383Z,6.84
2023-02-14T09:27:14.763Z,6.80
2023-02-14T09:29:47.359Z,6.72
2023-02-14T09:32:19.983Z,6.65
2023-02-14T09:34:52.699Z,6.57
2023-02-14T09:37:25.884Z,6.59
2023-02-14T09:39:58.345Z,6.58
2023-02-14T09:42:47.464Z,6.57
2023-02-14T09:45:26.936Z,6.55
2023-02-14T09:48:19.622Z,6.56
2023-02-14T09:51:04.637Z,6.56
2023-02-14T09:53:37.840Z,6.50
2023-02-14T09:56:23.718Z,6.51
2023-02-14T09:59:18.907Z,6.58
2023-02-14T10:01:52.786Z,6.69
2023-02-14T10:04:59.136Z,6.80
2023-02-14T10:07:58.043Z,6.86
2023-02-14T10:10:45.827Z,6.98
2023-02-14T10:13:53.927Z,7.10
2023-02-14T10:16:32.962Z,7.13
2023-02-14T10:19:42.775Z,7.24
2023-02-14T10:22:19.529Z,7.22
2023-02-14T10:25:02.153Z,7.17
2023-02-14T10:27:44.904Z,7.13
2023-02-14T10:30:23.952Z,7.10
2023-02-14T10:33:18.107Z,7.11
2023-02-14T10:36:00.386Z,7.13
2023-02-14T10:38:54.085Z,7.14
2023-02-14T10:41:51.915Z,7.47
2023-02-14T10:44:44.429Z,8.20
2023-02-14T10:47:45.240Z,8.69
2023-02-14T10:50:44.726Z,8.88
2023-02-14T10:53:42.730Z,9.06
2023-02-14T10:56:29.302Z,9.05
2023-02-14T10:59:05.009Z,8.93
2023-02-14T11:01:37.897Z,8.75
2023-02-14T11:04:12.348Z,8.51
2023-02-14T11:06:46.689Z,8.25
2023-02-14T11:09:19.371Z,8.11
2023-02-14T11:12:00.138Z,8.34
2023-02-14T11:14:38.014Z,8.72
2023-02-14T11:17:32.422Z,8.73
2023-02-14T11:20:22.619Z,8.49
2023-02-14T11:22:55.795Z,8.40
2023-02-14T11:25:30.473Z,8.21
2023-02-14T11:28:11.356Z,8.01
2023-02-14T11:30:49.186Z,7.83
2023-02-14T11:33:42.240Z,8.02
2023-02-14T11:36:17.681Z,8.50
2023-02-14T11:39:23.581Z,8.69
2023-02-14T11:41:58.474Z,8.86
2023-02-14T11:44:33.079Z,8.85
2023-02-14T11:47:30.697Z,8.57
2023-02-14T11:50:07.492Z,8.26
2023-02-14T11:52:43.993Z,8.03
2023-02-14T11:55:26.775Z,7.90
2023-02-14T11:57:59.323Z,7.67
2023-02-14T12:00:31.970Z,7.51
2023-02-14T12:03:06.307Z,7.35
2023-02-14T12:05:49.056Z,7.27
2023-02-14T12:08:25.946Z,7.18
2023-02-14T12:11:11.844Z,7.11
2023-02-14T12:13:44.348Z,7.04
2023-02-14T12:16:21.555Z,6.98
2023-02-14T12:19:14.562Z,6.99
2023-02-14T12:22:07.005Z,7.02
2023-02-14T12:24:53.039Z,7.08
2023-02-14T12:27:31.204Z,7.06
2023-02-14T12:30:22.541Z,7.01
2023-02-14T12:32:57.928Z,6.98
2023-02-14T12:36:03.750Z,6.95
2023-02-14T12:39:24.208Z,6.88
2023-02-14T12:42:04.784Z,6.72
2023-02-14T12:44:45.665Z,6.54
2023-02-14T12:47:44.946Z,6.40
2023-02-14T12:50:30.726Z,6.28
2023-02-14T12:53:17.088Z,6.27
2023-02-14T12:56:17.963Z,6.28
2023-02-14T12:59:16.011Z,6.25
2023-02-14T13:02:02.090Z,6.21
2023-02-14T13:04:55.126Z,6.18
2023-02-14T13:08:02.058Z,6.15
2023-02-14T13:10:51.748Z,6.19
2023-02-14T13:13:56.200Z,6.23
2023-02-14T13:16:42.173Z,6.28
2023-02-14T13:19:38.555Z,6.30
2023-02-14T13:22:12.833Z,6.28
2023-02-14T13:24:45.912Z,6.24
2023-02-14T13:27:27.768Z,6.25
2023-02-14T13:30:06.442Z,6.22
2023-02-14T13:32:44.051Z,6.19
2023-02-14T13:35:20.596Z,6.13
2023-02-14T13:38:03.229Z,6.15
2023-02-14T13:40:35.541Z,6.19
2023-02-14T13:43:08.005Z,6.18
2023-02-14T13:45:55.341Z,6.20
2023-02-14T13:48:30.890Z,6.13
2023-02-14T13:51:10.264Z,6.07
2023-02-14T13:53:44.869Z,6.05
2023-02-14T13:56:22.157Z,6.01
2023-02-14T13:59:06.559Z,5.98
2023-02-14T14:01:46.626Z,5.97
2023-02-14T14:04:34.666Z,5.99
2023-02-14T14:07:16.954Z,5.96
2023-02-14T14:09:54.406Z,5.92
2023-02-14T14:12:37.007Z,5.87
2023-02-14T14:15:13.513Z,5.80
2023-02-14T14:17:53.154Z,5.77
2023-02-14T14:20:31.786Z,5.69
2023-02-14T14:23:04.436Z,5.60
2023-02-14T14:25:41.189Z,5.48
2023-02-14T14:28:16.050Z,5.37
2023-02-14T14:30:48.694Z,5.29
2023-02-14T14:33:34.977Z,5.20
2023-02-14T14:36:11.205Z,5.15
2023-02-14T14:38:52.393Z,5.12
2023-02-14T14:41:32.705Z,5.13
2023-02-14T14:44:06.934Z,5.07
2023-02-14T14:46:40.450Z,5.03
2023-02-14T14:49:12.938Z,4.95
2023-02-14T14:51:45.857Z,4.88
2023-02-14T14:54:20.961Z,4.81
2023-02-14T14:56:59.206Z,4.74
2023-02-14T14:59:37.409Z,4.67
2023-02-14T15:02:26.602Z,4.63
2023-02-14T15:04:59.200Z,4.62
2023-02-14T15:07:36.618Z,4.62
2023-02-14T15:10:30.607Z,4.59
2023-02-14T15:13:20.651Z,4.54
2023-02-14T15:15:52.951Z,4.51
2023-02-14T15:18:25.536Z,4.48
2023-02-14T15:20:58.420Z,4.45
2023-02-14T15:23:33.192Z,4.46
2023-02-14T15:26:06.319Z,4.49
2023-02-14T15:28:38.774Z,4.47
2023-02-14T15:31:11.505Z,4.48
2023-02-14T15:33:44.280Z,4.48
2023-02-14T15:36:24.987Z,4.49
2023-02-14T15:38:57.718Z,4.52
2023-02-14T15:41:30.300Z,4.53
2023-02-14T15:44:02.715Z,4.54
2023-02-14T15:46:39.692Z,4.53
2023-02-14T15:49:14.620Z,4.52
2023-02-14T15:51:48.285Z,4.52
2023-02-14T15:54:39.277Z,4.48
2023-02-14T15:57:22.188Z,4.48
2023-02-14T15:59:55.145Z,4.50
2023-02-14T16:02:38.969Z,4.48
2023-02-14T16:05:22.681Z,4.49
2023-02-14T16:08:07.030Z,4.49
2023-02-14T16:10:40.274Z,4.43
2023-02-14T16:13:17.752Z,4.44
2023-02-14T16:16:03.363Z,4.41
2023-02-14T16:18:41.878Z,4.42
2023-02-14T16:21:28.444Z,4.45
2023-02-14T16:24:12.077Z,4.43
2023-02-14T16:26:45.506Z,4.40
2023-02-14T16:29:20.509Z,4.41
2023-02-14T16:32:16.122Z,4.41
2023-02-14T16:34:30.717Z,4.41
2023-02-14T16:37:08.824Z,4.39
2023-02-14T16:39:41.235Z,4.38
2023-02-14T16:42:17.782Z,4.39
2023-02-14T16:44:50.430Z,4.43
2023-02-14T16:47:23.053Z,4.47
2023-02-14T16:49:55.363Z,4.50
2023-02-14T16:52:28.326Z,4.47
2023-02-14T16:55:00.619Z,4.43
2023-02-14T16:57:40.512Z,4.34
2023-02-14T17:00:13.906Z,4.30
2023-02-14T17:02:46.604Z,4.28
2023-02-14T17:05:19.805Z,4.26
2023-02-14T17:07:52.547Z,4.24
2023-02-14T17:10:24.947Z,4.21
2023-02-14T17:12:59.206Z,4.19
2023-02-14T17:15:32.873Z,4.15
2023-02-14T17:18:09.843Z,4.08
2023-02-14T17:20:42.947Z,4.00
2023-02-14T17:23:15.690Z,3.93
2023-02-14T17:25:49.187Z,3.89
2023-02-14T17:28:22.453Z,3.87
2023-02-14T17:30:55.510Z,3.85
2023-02-14T17:33:30.496Z,3.84
2023-02-14T17:36:12.298Z,3.83
2023-02-14T17:38:45.613Z,3.80
2023-02-14T17:41:23.711Z,3.79
2023-02-14T17:43:58.924Z,3.79
2023-02-14T17:46:32.286Z,3.75
2023-02-14T17:49:04.689Z,3.75
2023-02-14T17:51:37.198Z,3.70
2023-02-14T17:54:09.735Z,3.62
2023-02-14T17:56:42.027Z,3.58
2023-02-14T17:59:14.305Z,3.54
2023-02-14T18:01:48.303Z,3.51
2023-02-14T18:04:20.727Z,3.53
2023-02-14T18:06:53.282Z,3.55
2023-02-14T18:09:25.967Z,3.57
2023-02-14T18:11:58.749Z,3.57
2023-02-14T18:14:31.556Z,3.62
2023-02-14T18:17:03.893Z,3.64
2023-02-14T18:19:37.497Z,3.67
2023-02-14T18:22:10.317Z,3.70
2023-02-14T18:24:43.757Z,3.69
2023-02-14T18:27:16.163Z,3.70
2023-02-14T18:29:49.378Z,3.74
2023-02-14T18:32:21.814Z,3.77
2023-02-14T18:34:54.600Z,3.81
2023-02-14T18:37:27.061Z,3.82
2023-02-14T18:40:00.856Z,3.85
2023-02-14T18:42:33.727Z,3.89
2023-02-14T18:45:06.276Z,3.92
2023-02-14T18:47:39.167Z,3.96
2023-02-14T18:50:13.118Z,3.96
2023-02-14T18:52:45.988Z,3.96
2023-02-14T18:55:19.083Z,3.92
2023-02-14T18:57:51.400Z,3.91
2023-02-14T19:00:25.002Z,3.88
2023-02-14T19:02:57.792Z,3.85
2023-02-14T19:05:31.183Z,3.82
2023-02-14T19:08:03.862Z,3.78
2023-02-14T19:10:39.105Z,3.75
2023-02-14T19:13:12.295Z,3.77
2023-02-14T19:15:44.716Z,3.79
2023-02-14T19:18:18.280Z,3.77
2023-02-14T19:20:50.689Z,3.78
2023-02-14T19:23:23.639Z,3.77
2023-02-14T19:25:56.062Z,3.79
2023-02-14T19:28:29.084Z,3.79
2023-02-14T19:31:01.618Z,3.79
2023-02-14T19:33:35.955Z,3.75
2023-02-14T19:36:10.698Z,3.75
2023-02-14T19:38:46.627Z,3.74
2023-02-14T19:41:24.402Z,3.72
2023-02-14T19:44:00.689Z,3.75
2023-02-14T19:46:34.027Z,3.80
2023-02-14T19:49:07.125Z,3.81
2023-02-14T19:51:40.140Z,3.83
2023-02-14T19:54:12.865Z,3.82
2023-02-14T19:56:46.902Z,3.70
2023-02-14T19:59:22.809Z,3.50
2023-02-14T20:01:56.753Z,3.37
2023-02-14T20:04:30.342Z,3.31
2023-02-14T20:07:03.284Z,3.39
2023-02-14T20:09:37.679Z,3.53
2023-02-14T20:12:12.384Z,3.63
2023-02-14T20:14:51.327Z,3.73
2023-02-14T20:17:19.683Z,3.82
2023-02-14T20:19:53.441Z,3.85
2023-02-14T20:22:26.592Z,3.87
2023-02-14T20:24:58.991Z,3.89
2023-02-14T20:27:31.343Z,3.92
2023-02-14T20:30:04.027Z,3.96
2023-02-14T20:32:36.567Z,3.94
2023-02-14T20:35:09.963Z,3.95
2023-02-14T20:37:42.244Z,3.96
2023-02-14T20:40:16.010Z,3.97
2023-02-14T20:42:51.086Z,4.01
2023-02-14T20:45:23.380Z,4.05
2023-02-14T20:47:55.703Z,4.02
2023-02-14T20:50:28.400Z,3.97
2023-02-14T20:53:01.118Z,3.92
2023-02-14T20:55:33.852Z,3.87
2023-02-14T20:58:06.425Z,3.84
2023-02-14T21:00:39.145Z,3.79
2023-02-14T21:03:11.517Z,3.76
2023-02-14T21:05:45.047Z,3.73
2023-02-14T21:08:17.353Z,3.71
2023-02-14T21:10:49.891Z,3.71
2023-02-14T21:13:22.357Z,3.70
2023-02-14T21:15:55.446Z,3.69
2023-02-14T21:18:28.801Z,3.70
2023-02-14T21:21:09.237Z,3.68
2023-02-14T21:23:43.276Z,3.69
2023-02-14T21:26:15.653Z,3.72
2023-02-14T21:28:48.793Z,3.72
2023-02-14T21:31:21.970Z,3.68
2023-02-14T21:33:56.142Z,3.61
2023-02-14T21:36:31.718Z,3.58
2023-02-14T21:39:05.961Z,3.55
2023-02-14T21:41:39.730Z,3.51
2023-02-14T21:44:14.136Z,3.51
2023-02-14T21:46:46.409Z,3.51
2023-02-14T21:49:36.204Z,3.50
2023-02-14T21:52:08.464Z,3.50
2023-02-14T21:54:40.819Z,3.52
2023-02-14T21:57:13.672Z,3.51
2023-02-14T21:59:47.520Z,3.53
2023-02-14T22:02:20.203Z,3.54
2023-02-14T22:04:52.934Z,3.52
2023-02-14T22:07:25.358Z,3.52
2023-02-14T22:09:58.900Z,3.49
2023-02-14T22:12:31.691Z,3.49
2023-02-14T22:15:05.366Z,3.51
2023-02-14T22:17:38.721Z,3.49
2023-02-14T22:20:11.734Z,3.45
2023-02-14T22:22:45.540Z,3.41
2023-02-14T22:25:18.572Z,3.37
2023-02-14T22:27:51.600Z,3.34
2023-02-14T22:30:24.580Z,3.36
2023-02-14T22:32:58.562Z,3.36
2023-02-14T22:35:30.983Z,3.35
2023-02-14T22:38:03.361Z,3.35
2023-02-14T22:40:35.728Z,3.35
2023-02-14T22:43:08.405Z,3.38
2023-02-14T22:45:40.759Z,3.37
2023-02-14T22:48:15.217Z,3.39
2023-02-14T22:50:47.625Z,3.41
2023-02-14T22:53:20.134Z,3.39
2023-02-14T22:55:52.665Z,3.42
2023-02-14T22:58:26.426Z,3.45
2023-02-14T23:00:58.781Z,3.48
2023-02-14T23:03:31.372Z,3.51
2023-02-14T23:06:04.227Z,3.49
2023-02-14T23:08:41.869Z,3.48
2023-02-14T23:11:18.380Z,3.47
2023-02-14T23:14:09.009Z,3.47
2023-02-14T23:16:59.316Z,3.47
2023-02-14T23:19:51.302Z,3.48
2023-02-14T23:22:26.904Z,3.45
2023-02-14T23:25:01.802Z,3.46
2023-02-14T23:27:47.279Z,3.46
2023-02-14T23:30:20.243Z,3.45
2023-02-14T23:32:52.747Z,3.47
2023-02-14T23:35:25.323Z,3.48
2023-02-14T23:37:57.724Z,3.46
2023-02-14T23:40:30.094Z,3.41
2023-02-14T23:43:02.580Z,3.36
2023-02-14T23:45:38.901Z,3.37
2023-02-14T23:48:11.898Z,3.33
2023-02-14T23:50:44.983Z,3.32
2023-02-14T23:53:17.920Z,3.33
2023-02-14T23:55:51.683Z,3.29
2023-02-14T23:58:24.410Z,3.31
